Time;durP1;ratioP1;P1;durP2;ratioP2;P2;SDS_P1;SDS_P2;PMS_P1;PMS_P2;Temp;Humidity;BMP_temperature;BMP_pressure;BME280_temperature;BME280_humidity;BME280_pressure;Samples;Min_cycle;Max_cycle;Signal;HPM_P1;HPM_P2
2022/11/14 00:02:26;;;;;;;1.67;1.20;;;;;;;2.92;100.00;100315.94;5038004;28;20458;-55
2022/11/14 00:04:53;;;;;;;0.80;0.80;;;;;;;2.84;100.00;100318.53;5034170;28;20486;-54
2022/11/14 00:07:19;;;;;;;0.43;0.43;;;;;;;2.88;100.00;100308.94;5045069;28;20511;-53
2022/11/14 00:09:46;;;;;;;30.07;1.30;;;;;;;2.79;100.00;100301.91;5043291;28;20458;-54
2022/11/14 00:12:12;;;;;;;0.90;0.90;;;;;;;2.82;100.00;100301.03;5037946;28;20825;-53
2022/11/14 00:14:39;;;;;;;0.93;0.93;;;;;;;2.74;100.00;100300.13;5039868;28;20525;-53
2022/11/14 00:17:05;;;;;;;25.03;2.90;;;;;;;2.66;100.00;100300.97;5034858;28;20492;-53
2022/11/14 00:19:31;;;;;;;1.00;1.00;;;;;;;2.70;100.00;100298.38;5035075;28;20999;-53
2022/11/14 00:21:59;;;;;;;1.50;0.83;;;;;;;2.66;100.00;100294.84;5038041;28;20451;-54
2022/11/14 00:24:25;;;;;;;1.37;0.70;;;;;;;2.58;100.00;100294.81;5039608;28;21003;-55
2022/11/14 00:26:51;;;;;;;2.07;1.97;;;;;;;2.54;100.00;100293.06;5030898;28;20545;-55
2022/11/14 00:29:18;;;;;;;1.33;1.27;;;;;;;2.45;100.00;100295.63;5039579;28;20952;-53
2022/11/14 00:31:44;;;;;;;2.30;1.00;;;;;;;2.49;100.00;100297.44;5044972;28;20937;-54
2022/11/14 00:34:11;;;;;;;2.60;1.50;;;;;;;2.47;100.00;100287.78;5043148;28;20455;-54
2022/11/14 00:36:37;;;;;;;1.77;1.67;;;;;;;2.42;100.00;100279.03;5037481;28;20455;-54
2022/11/14 00:39:03;;;;;;;1.63;1.53;;;;;;;2.39;100.00;100277.25;5039009;28;20475;-52
2022/11/14 00:41:30;;;;;;;0.63;0.63;;;;;;;2.36;100.00;100279.88;5049907;28;20520;-54
2022/11/14 00:43:56;;;;;;;0.60;0.50;;;;;;;2.48;100.00;100276.44;5038610;28;20479;-55
2022/11/14 00:46:23;;;;;;;0.80;0.80;;;;;;;2.57;100.00;100279.94;5046408;28;20467;-53
2022/11/14 00:48:49;;;;;;;1.20;1.20;;;;;;;2.56;100.00;100275.56;5044126;28;20482;-54
2022/11/14 00:51:16;;;;;;;2.03;1.93;;;;;;;2.50;100.00;100267.69;5037297;28;20459;-55
2022/11/14 00:53:42;;;;;;;3.20;2.00;;;;;;;2.61;100.00;100270.38;5038723;28;20486;-54
2022/11/14 00:56:08;;;;;;;2.03;1.93;;;;;;;2.72;100.00;100273.88;5043874;28;20451;-54
2022/11/14 00:58:35;;;;;;;1.73;1.60;;;;;;;2.67;100.00;100271.25;5043142;28;20869;-55
2022/11/14 01:01:01;;;;;;;0.80;0.80;;;;;;;2.70;100.00;100274.75;5037054;28;20458;-55
2022/11/14 01:03:28;;;;;;;2.83;2.70;;;;;;;2.64;100.00;100273.00;5038047;28;20491;-54
2022/11/14 01:05:54;;;;;;;0.50;0.47;;;;;;;2.95;100.00;100273.94;5034732;28;20447;-55
2022/11/14 01:08:21;;;;;;;1.23;1.13;;;;;;;3.28;100.00;100276.59;5044007;28;20482;-54
2022/11/14 01:10:50;;;;;;;1.17;1.17;;;;;;;3.32;100.00;100271.38;5037031;28;20462;-53
2022/11/14 01:13:18;;;;;;;1.53;1.53;;;;;;;3.12;100.00;100282.72;5037904;28;20467;-54
2022/11/14 01:15:47;;;;;;;0.97;0.97;;;;;;;3.04;100.00;100281.84;5021049;28;20459;-55
2022/11/14 01:18:17;;;;;;;2.23;2.00;;;;;;;2.77;100.00;100271.28;5044074;28;20474;-54
2022/11/14 01:20:45;;;;;;;1.97;1.87;;;;;;;2.58;100.00;100279.06;5038034;28;20465;-55
2022/11/14 01:23:13;;;;;;;0.77;0.77;;;;;;;2.74;100.00;100279.13;5044206;28;20465;-54
2022/11/14 01:25:42;;;;;;;5.87;1.80;;;;;;;2.52;100.00;100275.56;5036878;28;20447;-54
2022/11/14 01:28:13;;;;;;;1.27;1.23;;;;;;;2.53;100.00;100279.94;5043233;28;20474;-54
2022/11/14 01:30:40;;;;;;;0.97;0.97;;;;;;;2.66;100.00;100280.00;5039607;28;20928;-54
2022/11/14 01:33:07;;;;;;;1.67;1.67;;;;;;;2.85;100.00;100277.41;5036745;28;20455;-56
2022/11/14 01:35:35;;;;;;;4.33;2.30;;;;;;;2.89;100.00;100279.19;5041060;28;20951;-56
2022/11/14 01:38:03;;;;;;;1.47;1.00;;;;;;;3.29;100.00;100274.88;5043142;28;20537;-55
2022/11/14 01:40:30;;;;;;;4.80;3.83;;;;;;;4.08;100.00;100274.75;5040188;28;20451;-55
2022/11/14 01:43:15;;;;;;;4.80;3.60;;;;;;;4.37;100.00;100256.25;5033921;28;20459;-54
2022/11/14 01:46:09;;;;;;;4.20;2.63;;;;;;;4.58;100.00;100252.66;5036344;28;20861;-56
2022/11/14 01:48:38;;;;;;;2.10;2.00;;;;;;;4.70;100.00;100252.59;5037353;28;20501;-54
2022/11/14 01:51:20;;;;;;;9.07;5.40;;;;;;;4.90;100.00;100243.69;5036136;28;20457;-54
2022/11/14 01:53:50;;;;;;;7.73;3.93;;;;;;;4.99;100.00;100233.13;5049255;28;20451;-54
2022/11/14 01:56:20;;;;;;;2.80;1.67;;;;;;;5.08;100.00;100232.19;5043011;28;20456;-53
2022/11/14 01:58:58;;;;;;;4.30;3.90;;;;;;;5.24;100.00;100229.41;5042977;28;20521;-55
2022/11/14 02:01:27;;;;;;;4.20;3.80;;;;;;;5.15;100.00;100218.94;5038132;28;20443;-51
2022/11/14 02:03:54;;;;;;;5.20;4.77;;;;;;;5.19;100.00;100218.03;5035641;28;21018;-52
2022/11/14 02:06:24;;;;;;;2.50;2.30;;;;;;;5.25;100.00;100210.09;5040217;28;20460;-53
2022/11/14 02:08:52;;;;;;;4.77;4.30;;;;;;;5.37;100.00;100202.97;5042722;28;20472;-52
2022/11/14 02:11:18;;;;;;;3.43;3.33;;;;;;;5.70;100.00;100209.66;5038741;28;20795;-52
2022/11/14 02:13:45;;;;;;;6.17;3.67;;;;;;;5.64;100.00;100200.94;5035937;28;20995;-51
2022/11/14 02:16:11;;;;;;;6.20;3.97;;;;;;;5.61;100.00;100195.69;5038580;28;20456;-52
2022/11/14 02:18:38;;;;;;;4.20;3.30;;;;;;;5.47;100.00;100197.56;5042763;28;20471;-54
2022/11/14 02:21:05;;;;;;;7.33;4.43;;;;;;;5.39;100.00;100193.28;5039728;28;20451;-53
2022/11/14 02:23:32;;;;;;;3.30;3.00;;;;;;;5.39;100.00;100193.28;5042290;28;20461;-53
2022/11/14 02:25:58;;;;;;;4.60;3.10;;;;;;;5.65;100.00;100189.50;5034156;28;20463;-52
2022/11/14 02:28:25;;;;;;;3.87;3.57;;;;;;;5.94;100.00;100190.97;5042699;28;20561;-51
2022/11/14 02:30:52;;;;;;;6.67;6.00;;;;;;;5.60;100.00;100188.66;5038181;28;20473;-49
2022/11/14 02:33:19;;;;;;;7.73;5.77;;;;;;;5.67;100.00;100189.47;5021327;28;20956;-50
2022/11/14 02:35:45;;;;;;;7.80;4.90;;;;;;;5.61;100.00;100184.25;5037937;28;20499;-49
2022/11/14 02:38:12;;;;;;;4.90;3.60;;;;;;;5.74;100.00;100185.00;5042270;28;20545;-52
2022/11/14 02:40:38;;;;;;;6.63;6.03;;;;;;;5.60;100.00;100179.88;5040250;28;20466;-49
2022/11/14 02:43:05;;;;;;;4.97;4.67;;;;;;;5.79;100.00;100177.94;5035942;28;21020;-53
2022/11/14 02:45:31;;;;;;;16.43;5.10;;;;;;;5.75;100.00;100178.84;5036525;28;20495;-53
2022/11/14 02:47:58;;;;;;;4.40;2.20;;;;;;;5.85;100.00;100170.81;5041439;28;20482;-50
2022/11/14 02:50:24;;;;;;;5.40;5.00;;;;;;;5.70;100.00;100180.66;5037633;28;20456;-52
2022/11/14 02:52:52;;;;;;;4.37;3.00;;;;;;;5.61;100.00;100164.03;5036221;28;20453;-49
2022/11/14 02:55:20;;;;;;;2.40;2.30;;;;;;;5.75;100.00;100168.28;5036062;28;20447;-50
2022/11/14 02:57:47;;;;;;;11.53;6.10;;;;;;;5.55;100.00;100171.16;5025212;28;20547;-49
2022/11/14 03:00:14;;;;;;;3.20;2.50;;;;;;;5.50;100.00;100165.06;5035308;28;20456;-52
2022/11/14 03:02:41;;;;;;;13.87;3.50;;;;;;;5.54;100.00;100165.00;5016705;28;20456;-51
2022/11/14 03:05:07;;;;;;;27.17;3.37;;;;;;;5.35;100.00;100159.06;5035605;28;20498;-49
2022/11/14 03:07:34;;;;;;;4.40;2.43;;;;;;;5.44;100.00;100159.84;5035581;28;20481;-49
2022/11/14 03:10:01;;;;;;;8.57;3.60;;;;;;;5.23;100.00;100151.25;5035137;28;20451;-50
2022/11/14 03:12:27;;;;;;;25.47;4.77;;;;;;;5.33;100.00;100147.63;5042009;28;20953;-49
2022/11/14 03:14:53;;;;;;;2.60;2.50;;;;;;;5.41;100.00;100150.19;5017156;28;20452;-49
2022/11/14 03:17:23;;;;;;;2.43;2.13;;;;;;;5.39;100.00;100146.72;5039977;28;20501;-49
2022/11/14 03:19:49;;;;;;;3.30;3.13;;;;;;;5.26;100.00;100145.09;5021295;28;20456;-50
2022/11/14 03:22:16;;;;;;;3.70;2.30;;;;;;;5.43;100.00;100131.72;5038292;28;20457;-49
2022/11/14 03:24:42;;;;;;;3.80;3.50;;;;;;;5.57;100.00;100132.47;5039023;28;20495;-51
2022/11/14 03:27:09;;;;;;;3.37;3.17;;;;;;;5.60;100.00;100135.94;5046399;28;20823;-50
2022/11/14 03:29:35;;;;;;;9.37;4.00;;;;;;;5.58;100.00;100142.97;5039236;28;20501;-53
2022/11/14 03:32:01;;;;;;;6.87;5.50;;;;;;;5.45;100.00;100140.50;5044596;28;20820;-49
2022/11/14 03:34:28;;;;;;;9.57;5.60;;;;;;;5.52;100.00;100142.19;5045796;28;20450;-49
2022/11/14 03:36:54;;;;;;;6.73;4.63;;;;;;;5.49;100.00;100136.97;5040347;28;20462;-50
2022/11/14 03:39:21;;;;;;;4.87;4.10;;;;;;;5.47;100.00;100138.72;5038631;28;21020;-49
2022/11/14 03:41:47;;;;;;;5.03;2.03;;;;;;;5.47;100.00;100142.22;5044442;28;20467;-50
2022/11/14 03:44:14;;;;;;;3.33;3.13;;;;;;;5.53;100.00;100141.31;5045318;28;21025;-48
2022/11/14 03:46:40;;;;;;;3.23;3.00;;;;;;;5.48;100.00;100135.19;5038915;28;20454;-51
2022/11/14 03:49:06;;;;;;;17.00;4.10;;;;;;;5.56;100.00;100128.06;5038679;28;20475;-48
2022/11/14 03:51:33;;;;;;;2.70;2.60;;;;;;;5.64;100.00;100126.25;5043547;28;20451;-50
2022/11/14 03:53:59;;;;;;;3.97;3.70;;;;;;;5.59;100.00;100123.63;5036256;28;20459;-47
2022/11/14 03:56:26;;;;;;;4.87;4.03;;;;;;;5.76;100.00;100119.97;5049918;28;20516;-49
2022/11/14 03:58:52;;;;;;;6.07;4.13;;;;;;;5.68;100.00;100124.44;5038795;28;20479;-49
2022/11/14 04:01:19;;;;;;;9.40;3.77;;;;;;;5.68;100.00;100121.81;5043321;28;20940;-49
2022/11/14 04:03:45;;;;;;;4.30;2.40;;;;;;;5.65;100.00;100128.84;5044921;28;20539;-48
2022/11/14 04:06:12;;;;;;;5.83;4.30;;;;;;;5.62;100.00;100128.91;5042606;28;20866;-49
2022/11/14 04:08:40;;;;;;;4.57;4.33;;;;;;;5.75;100.00;100140.16;5044977;28;20483;-48
2022/11/14 04:11:06;;;;;;;19.33;5.67;;;;;;;5.71;100.00;100124.41;5041239;28;20836;-49
2022/11/14 04:13:33;;;;;;;10.83;5.90;;;;;;;5.78;100.00;100126.97;5038370;28;20858;-49
2022/11/14 04:15:59;;;;;;;5.47;3.97;;;;;;;5.86;100.00;100129.47;5041660;28;20452;-49
2022/11/14 04:18:26;;;;;;;11.73;3.17;;;;;;;6.03;100.00;100126.66;5044901;28;20471;-50
2022/11/14 04:20:54;;;;;;;6.53;5.93;;;;;;;6.19;100.00;100131.75;5041819;28;21021;-50
2022/11/14 04:23:20;;;;;;;13.97;3.97;;;;;;;6.15;100.00;100130.00;5043480;28;20463;-51
2022/11/14 04:25:47;;;;;;;4.43;4.10;;;;;;;6.05;100.00;100127.53;5037605;28;20846;-48
2022/11/14 04:28:13;;;;;;;2.70;2.53;;;;;;;6.02;100.00;100133.72;5044661;28;20494;-50
2022/11/14 04:30:40;;;;;;;4.47;4.17;;;;;;;5.94;100.00;100131.19;5041975;28;20451;-49
2022/11/14 04:33:07;;;;;;;23.27;5.13;;;;;;;5.99;100.00;100127.59;5037218;28;20447;-49
2022/11/14 04:35:33;;;;;;;6.87;3.83;;;;;;;6.10;100.00;100125.72;5038870;28;20450;-50
2022/11/14 04:38:00;;;;;;;7.93;5.53;;;;;;;6.09;100.00;100123.97;5044681;28;20475;-52
2022/11/14 04:40:26;;;;;;;5.40;2.93;;;;;;;6.06;100.00;100124.00;5035659;28;20854;-50
2022/11/14 04:42:53;;;;;;;9.87;5.53;;;;;;;6.32;100.00;100110.47;5031670;28;20492;-49
2022/11/14 04:45:19;;;;;;;21.50;5.77;;;;;;;6.33;100.00;100109.56;5042315;28;20556;-50
2022/11/14 04:47:45;;;;;;;22.47;5.80;;;;;;;6.21;100.00;100102.69;5026889;28;20653;-49
2022/11/14 04:50:12;;;;;;;6.93;5.90;;;;;;;6.17;100.00;100111.56;5040928;28;20458;-54
2022/11/14 04:52:39;;;;;;;9.13;4.67;;;;;;;6.19;100.00;100105.34;5036869;28;20923;-49
2022/11/14 04:55:05;;;;;;;7.10;5.50;;;;;;;6.23;100.00;100109.69;5041515;28;20447;-49
2022/11/14 04:57:32;;;;;;;5.53;4.60;;;;;;;6.31;100.00;100104.31;5034000;28;20502;-50
2022/11/14 04:59:58;;;;;;;5.63;5.33;;;;;;;6.20;100.00;100108.88;5041314;28;21013;-53
2022/11/14 05:02:25;;;;;;;13.43;5.20;;;;;;;6.01;100.00;100104.72;5035002;28;20882;-51
2022/11/14 05:04:51;;;;;;;7.57;4.23;;;;;;;5.94;100.00;100110.09;5031489;28;20484;-50
2022/11/14 05:07:17;;;;;;;7.10;4.00;;;;;;;5.95;100.00;100103.03;5034435;28;20483;-50
2022/11/14 05:09:44;;;;;;;25.37;6.50;;;;;;;5.91;100.00;100101.34;5040010;28;20458;-51
2022/11/14 05:12:10;;;;;;;17.43;5.10;;;;;;;6.04;100.00;100094.16;5043957;28;20451;-51
2022/11/14 05:14:37;;;;;;;5.53;5.17;;;;;;;5.89;100.00;100082.88;5033723;28;20452;-52
2022/11/14 05:17:03;;;;;;;5.13;3.90;;;;;;;6.04;100.00;100073.91;5031613;28;20501;-50
2022/11/14 05:19:30;;;;;;;6.27;4.27;;;;;;;6.08;100.00;100080.00;5033973;28;20949;-50
2022/11/14 05:21:56;;;;;;;3.83;3.50;;;;;;;6.01;100.00;100084.47;5044578;28;20452;-50
2022/11/14 05:24:23;;;;;;;8.77;3.83;;;;;;;6.02;100.00;100078.31;5039046;28;20464;-52
2022/11/14 05:26:49;;;;;;;10.87;6.30;;;;;;;6.00;100.00;100069.53;5043403;28;20458;-50
2022/11/14 05:29:15;;;;;;;11.20;2.50;;;;;;;6.20;100.00;100067.50;5035075;28;21007;-50
2022/11/14 05:31:42;;;;;;;5.03;4.57;;;;;;;6.16;100.00;100067.56;5037002;28;20494;-52
2022/11/14 05:34:08;;;;;;;11.00;6.23;;;;;;;6.20;100.00;100066.66;5022212;28;20452;-50
2022/11/14 05:36:34;;;;;;;18.10;5.10;;;;;;;6.30;100.00;100070.00;5043903;28;20456;-50
2022/11/14 05:39:01;;;;;;;7.93;4.53;;;;;;;6.22;100.00;100071.00;5042059;28;20498;-51
2022/11/14 05:41:27;;;;;;;7.90;4.10;;;;;;;6.23;100.00;100067.47;5031387;28;20454;-51
2022/11/14 05:43:54;;;;;;;26.63;6.10;;;;;;;6.14;100.00;100070.22;5042244;28;20512;-49
2022/11/14 05:46:20;;;;;;;11.97;7.73;;;;;;;6.11;100.00;100070.28;5035022;28;20495;-51
2022/11/14 05:48:47;;;;;;;7.33;5.70;;;;;;;6.03;100.00;100065.97;5043126;28;20474;-52
2022/11/14 05:51:13;;;;;;;7.10;5.27;;;;;;;6.01;100.00;100062.50;5036166;28;20516;-52
2022/11/14 05:53:40;;;;;;;10.97;2.80;;;;;;;6.08;100.00;100070.31;5037696;28;20452;-49
2022/11/14 05:56:10;;;;;;;3.00;2.70;;;;;;;6.10;100.00;100057.97;5043005;28;20448;-50
2022/11/14 05:58:37;;;;;;;7.80;4.83;;;;;;;6.10;100.00;100060.63;5040882;28;20481;-50
2022/11/14 06:01:12;;;;;;;12.00;6.80;;;;;;;6.10;100.00;100065.88;5036029;28;20458;-50
2022/11/14 06:03:41;;;;;;;6.50;5.00;;;;;;;6.07;100.00;100062.44;5036275;28;20498;-49
2022/11/14 06:06:11;;;;;;;3.23;2.30;;;;;;;6.12;100.00;100071.16;5042111;28;20992;-52
2022/11/14 06:08:38;;;;;;;6.90;3.93;;;;;;;6.05;100.00;100065.09;5043217;28;20528;-50
2022/11/14 06:11:07;;;;;;;4.47;3.27;;;;;;;6.15;100.00;100060.53;5037865;28;20454;-50
2022/11/14 06:13:34;;;;;;;3.60;3.30;;;;;;;6.07;100.00;100068.59;5036377;28;20807;-50
2022/11/14 06:16:03;;;;;;;4.27;3.37;;;;;;;6.07;100.00;100063.31;5040747;28;20459;-49
2022/11/14 06:18:31;;;;;;;5.53;5.03;;;;;;;6.00;100.00;100072.19;5043188;28;20478;-49
2022/11/14 06:21:21;;;;;;;10.67;5.20;;;;;;;6.11;100.00;100072.91;5039360;28;20462;-50
2022/11/14 06:23:48;;;;;;;4.80;4.60;;;;;;;6.08;100.00;100080.00;5041157;28;20965;-51
2022/11/14 06:26:29;;;;;;;3.80;3.50;;;;;;;6.11;100.00;100075.56;5041810;28;20506;-52
2022/11/14 06:28:56;;;;;;;7.73;2.30;;;;;;;6.05;100.00;100065.09;5024838;28;21038;-50
2022/11/14 06:31:24;;;;;;;4.10;2.40;;;;;;;6.04;100.00;100067.75;5035945;28;20459;-50
2022/11/14 06:33:50;;;;;;;7.20;4.97;;;;;;;6.12;100.00;100063.22;5041338;28;20455;-50
2022/11/14 06:36:17;;;;;;;9.43;7.27;;;;;;;6.09;100.00;100069.44;5030730;28;20448;-52
2022/11/14 06:38:44;;;;;;;5.53;3.93;;;;;;;6.13;100.00;100064.97;5040847;28;20886;-50
2022/11/14 06:41:16;;;;;;;7.00;3.63;;;;;;;6.17;100.00;100062.28;5041833;28;20455;-50
2022/11/14 06:43:47;;;;;;;3.97;3.60;;;;;;;6.14;100.00;100064.94;5040058;28;20451;-49
2022/11/14 06:46:16;;;;;;;5.90;3.03;;;;;;;6.12;100.00;100063.22;5035619;28;20494;-51
2022/11/14 06:48:45;;;;;;;26.07;5.90;;;;;;;6.14;100.00;100064.06;5041994;28;20482;-50
2022/11/14 06:51:13;;;;;;;7.07;3.83;;;;;;;6.06;100.00;100051.00;5035659;28;20450;-51
2022/11/14 06:53:39;;;;;;;4.70;4.40;;;;;;;6.19;100.00;100051.72;5036876;28;20456;-50
2022/11/14 06:56:11;;;;;;;5.90;5.20;;;;;;;6.09;100.00;100058.00;5042390;28;20936;-51
2022/11/14 06:58:41;;;;;;;5.47;3.23;;;;;;;6.13;100.00;100041.22;5042185;28;20982;-51
2022/11/14 07:01:15;;;;;;;10.80;5.10;;;;;;;6.06;100.00;100039.59;5022353;28;21016;-53
2022/11/14 07:03:42;;;;;;;4.17;3.67;;;;;;;6.18;100.00;100040.28;5035104;28;20455;-54
2022/11/14 07:06:10;;;;;;;3.53;3.23;;;;;;;6.18;100.00;100039.41;5041160;28;20541;-51
2022/11/14 07:08:37;;;;;;;10.33;5.97;;;;;;;6.18;100.00;100048.19;5042018;28;20513;-51
2022/11/14 07:11:06;;;;;;;30.07;3.50;;;;;;;6.16;100.00;100041.16;5036953;28;20461;-53
2022/11/14 07:13:34;;;;;;;12.00;4.57;;;;;;;6.19;100.00;100049.94;5035307;28;20448;-50
2022/11/14 07:16:01;;;;;;;4.20;3.73;;;;;;;6.08;100.00;100051.84;5040241;28;20459;-53
2022/11/14 07:18:32;;;;;;;6.00;4.00;;;;;;;6.09;100.00;100065.91;5041058;28;20471;-51
2022/11/14 07:21:04;;;;;;;23.07;7.63;;;;;;;5.99;100.00;100054.59;5038174;28;20455;-50
2022/11/14 07:23:32;;;;;;;10.87;3.80;;;;;;;5.98;100.00;100054.63;5042625;28;20463;-51
2022/11/14 07:26:01;;;;;;;12.13;6.30;;;;;;;6.02;100.00;100062.47;5039363;28;20548;-51
2022/11/14 07:28:28;;;;;;;5.80;4.13;;;;;;;6.02;100.00;100058.97;5034830;28;20924;-51
2022/11/14 07:30:55;;;;;;;10.90;5.37;;;;;;;6.03;100.00;100058.97;5038387;28;20458;-54
2022/11/14 07:33:21;;;;;;;15.13;3.73;;;;;;;6.04;100.00;100055.44;5042038;28;20458;-51
2022/11/14 07:35:49;;;;;;;11.40;6.53;;;;;;;6.00;100.00;100056.34;5039664;28;20451;-55
2022/11/14 07:38:16;;;;;;;5.37;4.87;;;;;;;6.00;100.00;100050.19;5035064;28;20888;-52
2022/11/14 07:40:42;;;;;;;6.13;5.17;;;;;;;6.09;100.00;100043.03;5027647;28;20514;-53
2022/11/14 07:43:08;;;;;;;8.93;4.50;;;;;;;6.17;100.00;100041.19;5035036;28;21006;-53
2022/11/14 07:45:35;;;;;;;12.57;6.13;;;;;;;5.99;100.00;100049.34;5036912;28;20496;-50
2022/11/14 07:48:01;;;;;;;10.93;7.40;;;;;;;6.09;100.00;100056.22;5040478;28;20521;-51
2022/11/14 07:50:29;;;;;;;8.60;6.10;;;;;;;6.11;100.00;100061.47;5036210;28;20853;-51
2022/11/14 07:52:56;;;;;;;4.80;4.40;;;;;;;6.03;100.00;100065.97;5041869;28;20455;-51
2022/11/14 07:55:23;;;;;;;4.20;4.07;;;;;;;6.06;100.00;100076.53;5041867;28;20447;-51
2022/11/14 07:57:54;;;;;;;4.17;3.77;;;;;;;6.01;100.00;100073.91;5021748;28;20883;-51
2022/11/14 08:00:20;;;;;;;9.30;4.97;;;;;;;6.06;100.00;100079.16;5034773;28;20953;-48
2022/11/14 08:02:47;;;;;;;7.60;4.87;;;;;;;6.13;100.00;100072.88;5041201;28;20451;-51
2022/11/14 08:05:13;;;;;;;9.03;4.20;;;;;;;6.18;100.00;100071.06;5041816;28;20494;-52
2022/11/14 08:07:40;;;;;;;14.40;5.63;;;;;;;6.14;100.00;100066.72;5035877;28;21021;-51
2022/11/14 08:10:07;;;;;;;5.60;5.13;;;;;;;6.24;100.00;100077.13;5038053;28;20455;-52
2022/11/14 08:12:34;;;;;;;6.00;5.07;;;;;;;6.15;100.00;100077.25;5043805;28;20460;-51
2022/11/14 08:15:00;;;;;;;4.60;4.30;;;;;;;6.13;100.00;100081.69;5045224;28;20459;-53
2022/11/14 08:17:26;;;;;;;11.53;5.73;;;;;;;6.16;100.00;100080.75;5039943;28;20471;-52
2022/11/14 08:19:53;;;;;;;9.07;5.20;;;;;;;6.26;100.00;100089.41;5038676;28;20545;-50
2022/11/14 08:22:19;;;;;;;5.93;5.30;;;;;;;6.36;100.00;100085.75;5047119;28;20461;-52
2022/11/14 08:24:46;;;;;;;8.30;6.57;;;;;;;6.45;100.00;100067.16;5037871;28;20447;-50
2022/11/14 08:27:15;;;;;;;5.43;5.00;;;;;;;6.30;100.00;100075.28;5043313;28;20499;-51
2022/11/14 08:29:42;;;;;;;6.17;5.77;;;;;;;6.29;100.00;100071.75;5044949;28;20451;-51
2022/11/14 08:32:10;;;;;;;6.53;4.60;;;;;;;6.33;100.00;100080.53;5040578;28;20505;-52
2022/11/14 08:34:37;;;;;;;7.40;5.70;;;;;;;6.32;100.00;100084.06;5038064;28;21072;-50
2022/11/14 08:37:03;;;;;;;9.10;4.23;;;;;;;6.44;100.00;100090.03;5042110;28;20960;-52
2022/11/14 08:39:30;;;;;;;7.73;7.00;;;;;;;6.45;100.00;100083.88;5043264;28;20477;-54
2022/11/14 08:41:56;;;;;;;6.00;5.30;;;;;;;6.43;100.00;100083.00;5031313;28;20451;-50
2022/11/14 08:44:22;;;;;;;6.30;5.80;;;;;;;6.47;100.00;100082.06;5043837;28;20458;-50
2022/11/14 08:46:49;;;;;;;4.50;4.10;;;;;;;6.39;100.00;100089.22;5037759;28;20489;-51
2022/11/14 08:49:16;;;;;;;8.03;4.63;;;;;;;6.39;100.00;100085.72;5044313;28;20979;-50
2022/11/14 08:51:42;;;;;;;11.33;3.50;;;;;;;6.44;100.00;100094.41;5040607;28;20455;-52
2022/11/14 08:54:09;;;;;;;24.30;6.50;;;;;;;6.43;100.00;100104.09;5036172;28;20459;-52
2022/11/14 08:56:35;;;;;;;9.23;4.30;;;;;;;6.52;100.00;100092.56;5041632;28;20454;-51
2022/11/14 08:59:03;;;;;;;12.63;7.20;;;;;;;6.60;100.00;100079.25;5044851;28;20840;-53
2022/11/14 09:01:31;;;;;;;6.10;3.77;;;;;;;6.56;100.00;100081.03;5040854;28;20455;-51
2022/11/14 09:03:59;;;;;;;9.47;7.77;;;;;;;6.60;100.00;100066.91;5037329;28;20458;-51
2022/11/14 09:06:26;;;;;;;15.50;5.00;;;;;;;6.59;100.00;100072.22;5040685;28;20494;-52
2022/11/14 09:08:52;;;;;;;7.03;5.40;;;;;;;6.53;100.00;100073.16;5044533;28;20982;-50
2022/11/14 09:11:19;;;;;;;10.80;4.97;;;;;;;6.53;100.00;100086.38;5040657;28;20989;-52
2022/11/14 09:13:45;;;;;;;11.87;4.63;;;;;;;6.68;100.00;100082.63;5047409;28;20918;-52
2022/11/14 09:16:12;;;;;;;9.63;7.70;;;;;;;6.79;100.00;100085.97;5040858;28;20470;-51
2022/11/14 09:18:38;;;;;;;17.50;9.57;;;;;;;6.77;100.00;100085.13;5036754;28;20544;-52
2022/11/14 09:21:07;;;;;;;8.53;4.43;;;;;;;6.76;100.00;100081.59;5039872;28;20451;-52
2022/11/14 09:23:34;;;;;;;11.93;6.37;;;;;;;6.91;100.00;100088.41;5044074;28;20447;-53
2022/11/14 09:26:05;;;;;;;7.00;6.07;;;;;;;6.95;100.00;100089.22;5041198;28;21022;-51
2022/11/14 09:28:31;;;;;;;10.33;8.57;;;;;;;7.16;100.00;100087.97;5036831;28;20493;-52
2022/11/14 09:31:09;;;;;;;11.87;5.87;;;;;;;7.15;100.00;100089.75;5038907;28;20467;-52
2022/11/14 09:33:36;;;;;;;6.90;6.40;;;;;;;7.15;100.00;100102.09;5024167;28;20458;-51
2022/11/14 09:36:05;;;;;;;12.70;5.77;;;;;;;7.35;100.00;100100.81;5036952;28;20462;-52
2022/11/14 09:38:33;;;;;;;16.97;7.13;;;;;;;7.18;100.00;100094.97;5042973;28;20483;-50
2022/11/14 09:41:07;;;;;;;10.90;5.37;;;;;;;7.22;100.00;100085.22;5043518;28;20477;-52
2022/11/14 09:44:01;;;;;;;12.40;5.67;;;;;;;7.18;100.00;100087.03;5038891;28;20470;-51
2022/11/14 09:46:36;;;;;;;5.50;4.77;;;;;;;7.33;100.00;100094.69;5036402;28;20498;-53
2022/11/14 09:49:03;;;;;;;4.20;2.77;;;;;;;7.31;100.00;100092.97;5037228;28;20466;-51
2022/11/14 09:51:35;;;;;;;6.47;5.00;;;;;;;7.43;100.00;100090.13;5037466;28;20455;-51
2022/11/14 09:54:20;;;;;;;7.03;6.33;;;;;;;7.52;100.00;100089.91;5036534;28;20960;-51
2022/11/14 09:56:47;;;;;;;4.73;3.57;;;;;;;7.45;100.00;100088.31;5038144;28;20443;-51
2022/11/14 09:59:14;;;;;;;8.03;6.73;;;;;;;7.63;100.00;100082.66;5039101;28;20480;-51
2022/11/14 10:02:04;;;;;;;17.83;5.27;;;;;;;8.07;100.00;100082.63;5021070;28;20462;-53
2022/11/14 10:04:37;;;;;;;7.70;6.77;;;;;;;7.63;100.00;100087.06;5042042;28;20454;-51
2022/11/14 10:07:15;;;;;;;8.37;6.33;;;;;;;7.98;100.00;100083.72;5043203;28;20494;-51
2022/11/14 10:10:05;;;;;;;14.10;7.43;;;;;;;7.92;100.00;100065.28;5040967;28;20443;-51
2022/11/14 10:12:49;;;;;;;15.33;7.43;;;;;;;8.01;100.00;100065.09;5043329;28;20509;-52
2022/11/14 10:15:27;;;;;;;15.00;7.20;;;;;;;8.06;100.00;100065.88;5042493;28;20450;-51
2022/11/14 10:18:32;;;;;;;12.30;8.17;;;;;;;8.13;100.00;100061.31;5040868;28;20526;-51
2022/11/14 10:21:14;;;;;;;23.13;7.90;;;;;;;7.84;100.00;100060.19;5033365;28;20489;-53
2022/11/14 10:23:59;;;;;;;20.83;6.60;;;;;;;8.09;100.00;100055.22;5042594;28;20452;-51
2022/11/14 10:26:30;;;;;;;13.30;8.50;;;;;;;7.93;100.00;100036.16;5042585;28;21003;-52
2022/11/14 10:29:06;;;;;;;16.13;7.60;;;;;;;7.86;100.00;100044.28;5037087;28;20993;-51
2022/11/14 10:31:53;;;;;;;10.00;5.43;;;;;;;8.10;100.00;100049.03;5035225;28;20455;-53
2022/11/14 10:34:40;;;;;;;6.60;5.60;;;;;;;8.05;100.00;100034.13;5037217;28;20933;-53
2022/11/14 10:37:26;;;;;;;14.33;7.90;;;;;;;7.68;100.00;100033.19;5037857;28;20843;-50
2022/11/14 10:39:59;;;;;;;7.17;6.53;;;;;;;7.95;100.00;100033.50;5035560;28;20458;-52
2022/11/14 10:42:34;;;;;;;17.90;8.87;;;;;;;7.93;100.00;100038.78;5036057;28;20952;-52
2022/11/14 10:45:16;;;;;;;16.10;7.10;;;;;;;8.21;100.00;100038.19;5042167;28;20451;-54
2022/11/14 10:47:49;;;;;;;12.53;6.60;;;;;;;8.32;100.00;100037.03;5037737;28;20495;-50
2022/11/14 10:50:22;;;;;;;9.63;5.80;;;;;;;7.91;100.00;100030.03;5038639;28;20470;-54
2022/11/14 10:52:53;;;;;;;13.53;7.27;;;;;;;7.98;100.00;100021.06;5042529;28;20513;-52
2022/11/14 10:55:20;;;;;;;16.20;4.83;;;;;;;7.93;100.00;100025.56;5041311;28;20532;-51
2022/11/14 10:58:09;;;;;;;10.33;8.03;;;;;;;8.06;100.00;100023.50;5026832;28;20770;-52
2022/11/14 11:00:36;;;;;;;7.57;5.27;;;;;;;8.28;100.00;100015.97;5035318;28;20447;-54
2022/11/14 11:03:02;;;;;;;9.30;5.10;;;;;;;8.42;100.00;100015.66;5039457;28;20933;-50
2022/11/14 11:05:29;;;;;;;7.23;4.30;;;;;;;8.68;100.00;100015.88;5042070;28;20978;-53
2022/11/14 11:13:56;;;;;;;4.97;4.60;;;;;;;8.67;100.00;99992.09;5035353;28;20455;-50
2022/11/14 11:16:25;;;;;;;4.87;4.30;;;;;;;8.54;100.00;99992.41;5036707;28;20453;-52
2022/11/14 11:18:52;;;;;;;4.60;4.40;;;;;;;8.56;100.00;99998.53;5041897;28;20481;-51
2022/11/14 11:21:22;;;;;;;7.43;6.70;;;;;;;8.72;100.00;99992.81;5041740;28;20464;-51
2022/11/14 11:23:52;;;;;;;8.27;6.00;;;;;;;8.69;100.00;99987.63;5041764;28;20514;-52
2022/11/14 11:26:30;;;;;;;10.80;5.10;;;;;;;8.58;100.00;99986.09;5041971;28;20953;-51
2022/11/14 11:29:04;;;;;;;9.13;4.27;;;;;;;8.67;100.00;99986.78;5037320;28;21007;-51
2022/11/14 11:31:46;;;;;;;4.53;4.23;;;;;;;8.64;100.00;99984.22;5035225;28;20450;-54
2022/11/14 11:34:12;;;;;;;3.53;3.33;;;;;;;8.69;100.00;99975.22;5036246;28;20455;-51
2022/11/14 11:36:46;;;;;;;9.93;5.47;;;;;;;8.78;100.00;99972.34;5041906;28;20459;-51
2022/11/14 11:39:32;;;;;;;13.00;4.73;;;;;;;8.78;100.00;99980.31;5041892;28;20539;-52